Terminal Aerodrome Forecast
Issued by NWS

Home | Current Version | Previous Version | Text Only | Print | Product List | Glossary On
Versions: 1 2 3 4 5 6 7 8 9 10 11 12 13
000
FTUS46 KLOX 251200 AAA
TAFBUR
TAF AMD
KBUR 251254Z 2513/2612 VRB03KT P6SM BKN150
     FM251800 17008KT P6SM BKN150
     FM260400 VRB03KT P6SM SCT150
     FM260900 VRB03KT P6SM BKN008=

USA.gov is the U.S. government's official web portal to all federal, state and local government web resources and services.